PWSweather.com
Personal Weather Stations
Station Observations
SUBOTICARS
SuboticaYU

SuboticaYU

Lat: 46.1296717, Lon: 19.641551

Elevation: 361

Station Type: Nexus

http://sumeteo.info

High Low Average
Temperature 34.0°F1.1°C 31.1°F-0.5°C 32.2°F0.1°C
Dew Point 31.6°F-0.2°C 26.5°F-3.1°C 29.7°F-1.3°C
Winds 6.9 mph 11.1 kmh Calm Calm 3.0 mph SSW4.8 kmh SSW
Wind Gusts 9.2 mph14.8 kmh -- 3.0 mph4.8 kmh
Humidity 95% 83% 90%
Pressure 29.76 in1007.8 mb 29.62 in1003.0 mb -
Precipitation 0.11 in2.8 mm - -
Hour Temp Dew Point Humidity Winds Wind Gusts Pressure Precip Precip Rate Daily Precip Total
12:00 AM 31.6°F-0.2°C 28.8°F-1.8°C 89% 2.3 mph ENE3.7 kmh ENE 2.3 mph3.7 kmh 29.70 in1005.8 mb - 0.00 in0.0 mm 0.00 in0.0 mm
12:10 AM 31.6°F-0.2°C 28.8°F-1.8°C 89% 2.3 mph ENE3.7 kmh ENE 2.3 mph3.7 kmh 29.70 in1005.8 mb - 0.00 in0.0 mm 0.00 in0.0 mm
12:15 AM 31.6°F-0.2°C 28.8°F-1.8°C 89% 2.3 mph ENE3.7 kmh ENE 3.5 mph5.6 kmh 29.69 in1005.4 mb - 0.00 in0.0 mm 0.00 in0.0 mm
12:20 AM 31.6°F-0.2°C 28.8°F-1.8°C 89% 2.3 mph ENE3.7 kmh ENE 2.3 mph3.7 kmh 29.69 in1005.4 mb - 0.00 in0.0 mm 0.00 in0.0 mm
12:25 AM 31.6°F-0.2°C 28.8°F-1.8°C 89% 1.2 mph ENE1.9 kmh ENE 1.2 mph1.9 kmh 29.69 in1005.4 mb - 0.00 in0.0 mm 0.00 in0.0 mm
12:30 AM 31.6°F-0.2°C 28.8°F-1.8°C 89% 1.2 mph ENE1.9 kmh ENE 2.3 mph3.7 kmh 29.70 in1005.8 mb - 0.00 in0.0 mm 0.00 in0.0 mm
12:35 AM 31.6°F-0.2°C 28.8°F-1.8°C 89% 1.2 mph ENE1.9 kmh ENE 2.3 mph3.7 kmh 29.70 in1005.8 mb - 0.00 in0.0 mm 0.00 in0.0 mm
12:40 AM 31.8°F-0.1°C 28.9°F-1.7°C 89% 1.2 mph ENE1.9 kmh ENE 1.2 mph1.9 kmh 29.70 in1005.8 mb - 0.00 in0.0 mm 0.00 in0.0 mm
12:45 AM 31.8°F-0.1°C 28.9°F-1.7°C 89% 2.3 mph ENE3.7 kmh ENE 3.5 mph5.6 kmh 29.69 in1005.4 mb - 0.00 in0.0 mm 0.00 in0.0 mm
12:50 AM 31.8°F-0.1°C 28.9°F-1.7°C 89% 2.3 mph ENE3.7 kmh ENE 2.3 mph3.7 kmh 29.69 in1005.4 mb - 0.00 in0.0 mm 0.00 in0.0 mm
12:55 AM 31.8°F-0.1°C 28.9°F-1.7°C 89% 1.2 mph ENE1.9 kmh ENE 2.3 mph3.7 kmh 29.69 in1005.4 mb - 0.00 in0.0 mm 0.00 in0.0 mm
01:00 AM 31.8°F-0.1°C 28.9°F-1.7°C 89% 1.2 mph ENE1.9 kmh ENE 2.3 mph3.7 kmh 29.68 in1005.1 mb - 0.00 in0.0 mm 0.00 in0.0 mm
01:10 AM 31.8°F-0.1°C 28.9°F-1.7°C 89% 1.2 mph ENE1.9 kmh ENE 2.3 mph3.7 kmh 29.68 in1005.1 mb - 0.00 in0.0 mm 0.00 in0.0 mm
01:15 AM 31.8°F-0.1°C 28.9°F-1.7°C 89% 2.3 mph ENE3.7 kmh ENE 2.3 mph3.7 kmh 29.68 in1005.1 mb - 0.00 in0.0 mm 0.00 in0.0 mm
01:20 AM 31.8°F-0.1°C 28.9°F-1.7°C 89% 2.3 mph ENE3.7 kmh ENE 3.5 mph5.6 kmh 29.68 in1005.1 mb - 0.00 in0.0 mm 0.00 in0.0 mm
01:25 AM 31.8°F-0.1°C 28.9°F-1.7°C 89% 1.2 mph ENE1.9 kmh ENE 2.3 mph3.7 kmh 29.68 in1005.1 mb - 0.00 in0.0 mm 0.00 in0.0 mm
01:30 AM 31.8°F-0.1°C 28.9°F-1.7°C 89% 2.3 mph ENE3.7 kmh ENE 2.3 mph3.7 kmh 29.68 in1005.1 mb - 0.00 in0.0 mm 0.00 in0.0 mm
01:35 AM 31.8°F-0.1°C 28.9°F-1.7°C 89% 2.3 mph ENE3.7 kmh ENE 2.3 mph3.7 kmh 29.68 in1005.1 mb - 0.00 in0.0 mm 0.00 in0.0 mm
01:40 AM 31.8°F-0.1°C 28.9°F-1.7°C 89% 2.3 mph ENE3.7 kmh ENE 2.3 mph3.7 kmh 29.68 in1005.1 mb - 0.00 in0.0 mm 0.00 in0.0 mm
01:45 AM 31.8°F-0.1°C 28.9°F-1.7°C 89% 1.2 mph ENE1.9 kmh ENE 2.3 mph3.7 kmh 29.68 in1005.1 mb - 0.00 in0.0 mm 0.00 in0.0 mm
01:50 AM 31.8°F-0.1°C 29.2°F-1.6°C 90% 2.3 mph ENE3.7 kmh ENE 2.3 mph3.7 kmh 29.68 in1005.1 mb - 0.00 in0.0 mm 0.00 in0.0 mm
01:55 AM 31.8°F-0.1°C 28.9°F-1.7°C 89% 2.3 mph ENE3.7 kmh ENE 3.5 mph5.6 kmh 29.68 in1005.1 mb - 0.00 in0.0 mm 0.00 in0.0 mm
02:00 AM 31.8°F-0.1°C 28.9°F-1.7°C 89% 1.2 mph ENE1.9 kmh ENE 2.3 mph3.7 kmh 29.68 in1005.1 mb - 0.00 in0.0 mm 0.00 in0.0 mm
02:10 AM 32.0°F0.0°C 29.4°F-1.4°C 90% 2.3 mph ENE3.7 kmh ENE 2.3 mph3.7 kmh 29.68 in1005.1 mb - 0.00 in0.0 mm 0.00 in0.0 mm
02:15 AM 32.0°F0.0°C 29.4°F-1.4°C 90% 2.3 mph ENE3.7 kmh ENE 2.3 mph3.7 kmh 29.67 in1004.7 mb - 0.00 in0.0 mm 0.00 in0.0 mm
02:20 AM 32.0°F0.0°C 29.4°F-1.4°C 90% 2.3 mph ENE3.7 kmh ENE 2.3 mph3.7 kmh 29.67 in1004.7 mb - 0.00 in0.0 mm 0.00 in0.0 mm
02:25 AM 32.0°F0.0°C 29.4°F-1.4°C 90% 2.3 mph ENE3.7 kmh ENE 2.3 mph3.7 kmh 29.67 in1004.7 mb - 0.00 in0.0 mm 0.00 in0.0 mm
02:30 AM 32.0°F0.0°C 29.4°F-1.4°C 90% 1.2 mph ENE1.9 kmh ENE 1.2 mph1.9 kmh 29.67 in1004.7 mb - 0.00 in0.0 mm 0.00 in0.0 mm
02:35 AM 32.0°F0.0°C 29.4°F-1.4°C 90% 1.2 mph ENE1.9 kmh ENE 1.2 mph1.9 kmh 29.67 in1004.7 mb - 0.00 in0.0 mm 0.00 in0.0 mm
02:40 AM 32.0°F0.0°C 29.4°F-1.4°C 90% 1.2 mph ENE1.9 kmh ENE 2.3 mph3.7 kmh 29.67 in1004.7 mb - 0.00 in0.0 mm 0.00 in0.0 mm
02:45 AM 32.0°F0.0°C 29.4°F-1.4°C 90% 2.3 mph ENE3.7 kmh ENE 2.3 mph3.7 kmh 29.67 in1004.7 mb - 0.00 in0.0 mm 0.00 in0.0 mm
02:50 AM 32.0°F0.0°C 29.4°F-1.4°C 90% 2.3 mph ENE3.7 kmh ENE 2.3 mph3.7 kmh 29.67 in1004.7 mb - 0.00 in0.0 mm 0.00 in0.0 mm
02:55 AM 32.0°F0.0°C 29.4°F-1.4°C 90% 2.3 mph ENE3.7 kmh ENE 2.3 mph3.7 kmh 29.67 in1004.7 mb - 0.00 in0.0 mm 0.00 in0.0 mm
03:00 AM 32.0°F0.0°C 29.4°F-1.4°C 90% 1.2 mph ENE1.9 kmh ENE 2.3 mph3.7 kmh 29.66 in1004.4 mb - 0.00 in0.0 mm 0.00 in0.0 mm
03:10 AM 32.0°F0.0°C 29.4°F-1.4°C 90% 1.2 mph ENE1.9 kmh ENE 2.3 mph3.7 kmh 29.66 in1004.4 mb - 0.00 in0.0 mm 0.00 in0.0 mm
03:15 AM 32.0°F0.0°C 29.4°F-1.4°C 90% 1.2 mph ENE1.9 kmh ENE 3.5 mph5.6 kmh 29.66 in1004.4 mb - 0.00 in0.0 mm 0.00 in0.0 mm
03:20 AM 32.0°F0.0°C 29.4°F-1.4°C 90% 2.3 mph ENE3.7 kmh ENE 2.3 mph3.7 kmh 29.66 in1004.4 mb - 0.00 in0.0 mm 0.00 in0.0 mm
03:25 AM 32.0°F0.0°C 29.4°F-1.4°C 90% 2.3 mph ENE3.7 kmh ENE 2.3 mph3.7 kmh 29.66 in1004.4 mb - 0.00 in0.0 mm 0.00 in0.0 mm
03:30 AM 32.0°F0.0°C 29.4°F-1.4°C 90% 1.2 mph ENE1.9 kmh ENE 2.3 mph3.7 kmh 29.66 in1004.4 mb - 0.00 in0.0 mm 0.00 in0.0 mm
03:35 AM 32.0°F0.0°C 29.4°F-1.4°C 90% 1.2 mph ENE1.9 kmh ENE 2.3 mph3.7 kmh 29.66 in1004.4 mb - 0.00 in0.0 mm 0.00 in0.0 mm
03:40 AM 32.0°F0.0°C 29.4°F-1.4°C 90% 1.2 mph ENE1.9 kmh ENE 1.2 mph1.9 kmh 29.66 in1004.4 mb - 0.00 in0.0 mm 0.00 in0.0 mm
03:45 AM 32.0°F0.0°C 29.4°F-1.4°C 90% 1.2 mph ENE1.9 kmh ENE 2.3 mph3.7 kmh 29.65 in1004.1 mb - 0.00 in0.0 mm 0.00 in0.0 mm
03:50 AM 32.0°F0.0°C 29.4°F-1.4°C 90% 1.2 mph ENE1.9 kmh ENE 1.2 mph1.9 kmh 29.65 in1004.1 mb - 0.00 in0.0 mm 0.00 in0.0 mm
03:55 AM 32.0°F0.0°C 29.4°F-1.4°C 90% 1.2 mph ENE1.9 kmh ENE 2.3 mph3.7 kmh 29.65 in1004.1 mb - 0.00 in0.0 mm 0.00 in0.0 mm
04:00 AM 32.0°F0.0°C 29.4°F-1.4°C 90% 1.2 mph ENE1.9 kmh ENE 2.3 mph3.7 kmh 29.65 in1004.1 mb - 0.00 in0.0 mm 0.00 in0.0 mm
04:10 AM 32.0°F0.0°C 29.4°F-1.4°C 90% 1.2 mph ENE1.9 kmh ENE 2.3 mph3.7 kmh 29.65 in1004.1 mb - 0.00 in0.0 mm 0.00 in0.0 mm
04:15 AM 32.0°F0.0°C 29.4°F-1.4°C 90% 1.2 mph ENE1.9 kmh ENE 1.2 mph1.9 kmh 29.65 in1004.1 mb - 0.00 in0.0 mm 0.00 in0.0 mm
04:20 AM 32.0°F0.0°C 29.4°F-1.4°C 90% 1.2 mph ENE1.9 kmh ENE 2.3 mph3.7 kmh 29.65 in1004.1 mb - 0.00 in0.0 mm 0.00 in0.0 mm
04:25 AM 32.0°F0.0°C 29.4°F-1.4°C 90% 2.3 mph ENE3.7 kmh ENE 2.3 mph3.7 kmh 29.65 in1004.1 mb - 0.00 in0.0 mm 0.00 in0.0 mm
04:30 AM 32.0°F0.0°C 29.4°F-1.4°C 90% 2.3 mph ENE3.7 kmh ENE 2.3 mph3.7 kmh 29.63 in1003.4 mb - 0.00 in0.0 mm 0.00 in0.0 mm
04:35 AM 32.0°F0.0°C 29.4°F-1.4°C 90% 1.2 mph ENE1.9 kmh ENE 1.2 mph1.9 kmh 29.63 in1003.4 mb - 0.00 in0.0 mm 0.00 in0.0 mm
04:40 AM 32.0°F0.0°C 29.4°F-1.4°C 90% 1.2 mph ENE1.9 kmh ENE 1.2 mph1.9 kmh 29.63 in1003.4 mb - 0.00 in0.0 mm 0.00 in0.0 mm
04:45 AM 32.0°F0.0°C 29.4°F-1.4°C 90% Calm Calm -- 29.64 in1003.7 mb - 0.00 in0.0 mm 0.00 in0.0 mm
04:50 AM 32.0°F0.0°C 29.4°F-1.4°C 90% Calm Calm -- 29.64 in1003.7 mb - 0.00 in0.0 mm 0.00 in0.0 mm
04:55 AM 32.0°F0.0°C 29.4°F-1.4°C 90% 1.2 mph ENE1.9 kmh ENE 1.2 mph1.9 kmh 29.64 in1003.7 mb - 0.00 in0.0 mm 0.00 in0.0 mm
05:00 AM 32.0°F0.0°C 29.4°F-1.4°C 90% 1.2 mph ENE1.9 kmh ENE 2.3 mph3.7 kmh 29.64 in1003.7 mb - 0.00 in0.0 mm 0.00 in0.0 mm
05:10 AM 32.0°F0.0°C 29.4°F-1.4°C 90% 2.3 mph ENE3.7 kmh ENE 2.3 mph3.7 kmh 29.64 in1003.7 mb - 0.00 in0.0 mm 0.00 in0.0 mm
05:15 AM 32.0°F0.0°C 29.4°F-1.4°C 90% 2.3 mph ENE3.7 kmh ENE 1.2 mph1.9 kmh 29.64 in1003.7 mb - 0.00 in0.0 mm 0.00 in0.0 mm
05:20 AM 32.0°F0.0°C 29.4°F-1.4°C 90% 1.2 mph ENE1.9 kmh ENE 2.3 mph3.7 kmh 29.64 in1003.7 mb - 0.00 in0.0 mm 0.00 in0.0 mm
05:25 AM 32.0°F0.0°C 29.4°F-1.4°C 90% 1.2 mph ENE1.9 kmh ENE 2.3 mph3.7 kmh 29.64 in1003.7 mb - 0.00 in0.0 mm 0.00 in0.0 mm
05:30 AM 32.0°F0.0°C 29.4°F-1.4°C 90% 1.2 mph ENE1.9 kmh ENE 2.3 mph3.7 kmh 29.63 in1003.4 mb - 0.00 in0.0 mm 0.00 in0.0 mm
05:35 AM 32.0°F0.0°C 29.4°F-1.4°C 90% 1.2 mph ENE1.9 kmh ENE 2.3 mph3.7 kmh 29.63 in1003.4 mb - 0.00 in0.0 mm 0.00 in0.0 mm
05:40 AM 32.0°F0.0°C 29.4°F-1.4°C 90% 1.2 mph ENE1.9 kmh ENE 1.2 mph1.9 kmh 29.63 in1003.4 mb - 0.00 in0.0 mm 0.00 in0.0 mm
05:45 AM 32.0°F0.0°C 29.4°F-1.4°C 90% 1.2 mph ENE1.9 kmh ENE 1.2 mph1.9 kmh 29.64 in1003.7 mb - 0.00 in0.0 mm 0.00 in0.0 mm
05:50 AM 32.0°F0.0°C 29.4°F-1.4°C 90% 2.3 mph ENE3.7 kmh ENE 2.3 mph3.7 kmh 29.64 in1003.7 mb - 0.00 in0.0 mm 0.00 in0.0 mm
05:55 AM 32.0°F0.0°C 29.4°F-1.4°C 90% Calm Calm -- 29.64 in1003.7 mb - 0.00 in0.0 mm 0.00 in0.0 mm
06:00 AM 32.0°F0.0°C 29.4°F-1.4°C 90% Calm Calm -- 29.63 in1003.4 mb - 0.00 in0.0 mm 0.00 in0.0 mm
06:10 AM 32.0°F0.0°C 29.4°F-1.4°C 90% Calm Calm -- 29.63 in1003.4 mb - 0.00 in0.0 mm 0.00 in0.0 mm
06:15 AM 32.0°F0.0°C 29.4°F-1.4°C 90% Calm Calm -- 29.63 in1003.4 mb - 0.00 in0.0 mm 0.00 in0.0 mm
06:20 AM 32.0°F0.0°C 29.4°F-1.4°C 90% Calm Calm -- 29.63 in1003.4 mb - 0.00 in0.0 mm 0.00 in0.0 mm
06:25 AM 32.0°F0.0°C 29.4°F-1.4°C 90% Calm Calm -- 29.63 in1003.4 mb - 0.00 in0.0 mm 0.00 in0.0 mm
06:30 AM 32.0°F0.0°C 29.4°F-1.4°C 90% Calm Calm -- 29.63 in1003.4 mb - 0.00 in0.0 mm 0.00 in0.0 mm
06:35 AM 32.0°F0.0°C 29.4°F-1.4°C 90% Calm Calm -- 29.63 in1003.4 mb - 0.00 in0.0 mm 0.00 in0.0 mm
06:40 AM 32.0°F0.0°C 29.4°F-1.4°C 90% Calm Calm -- 29.63 in1003.4 mb - 0.00 in0.0 mm 0.00 in0.0 mm
06:45 AM 32.0°F0.0°C 29.4°F-1.4°C 90% Calm Calm -- 29.64 in1003.7 mb - 0.00 in0.0 mm 0.00 in0.0 mm
06:50 AM 32.0°F0.0°C 29.4°F-1.4°C 90% Calm Calm -- 29.64 in1003.7 mb - 0.00 in0.0 mm 0.00 in0.0 mm
06:55 AM 32.0°F0.0°C 29.4°F-1.4°C 90% Calm Calm -- 29.64 in1003.7 mb - 0.00 in0.0 mm 0.00 in0.0 mm
07:00 AM 32.0°F0.0°C 29.4°F-1.4°C 90% Calm Calm -- 29.63 in1003.4 mb - 0.00 in0.0 mm 0.00 in0.0 mm
07:10 AM 32.0°F0.0°C 29.4°F-1.4°C 90% Calm Calm -- 29.63 in1003.4 mb - 0.00 in0.0 mm 0.00 in0.0 mm
07:15 AM 32.0°F0.0°C 29.4°F-1.4°C 90% Calm Calm -- 29.62 in1003.0 mb - 0.00 in0.0 mm 0.00 in0.0 mm
07:20 AM 32.0°F0.0°C 29.4°F-1.4°C 90% Calm Calm -- 29.62 in1003.0 mb - 0.00 in0.0 mm 0.00 in0.0 mm
07:25 AM 32.0°F0.0°C 29.4°F-1.4°C 90% Calm Calm -- 29.62 in1003.0 mb - 0.00 in0.0 mm 0.00 in0.0 mm
07:30 AM 32.0°F0.0°C 29.4°F-1.4°C 90% Calm Calm -- 29.63 in1003.4 mb - 0.00 in0.0 mm 0.00 in0.0 mm
07:35 AM 32.0°F0.0°C 29.4°F-1.4°C 90% Calm Calm -- 29.63 in1003.4 mb - 0.00 in0.0 mm 0.00 in0.0 mm
07:40 AM 32.0°F0.0°C 29.4°F-1.4°C 90% 1.2 mph ENE1.9 kmh ENE 3.5 mph5.6 kmh 29.63 in1003.4 mb - 0.00 in0.0 mm 0.00 in0.0 mm
07:45 AM 32.0°F0.0°C 29.4°F-1.4°C 90% 2.3 mph ENE3.7 kmh ENE 2.3 mph3.7 kmh 29.63 in1003.4 mb - 0.00 in0.0 mm 0.00 in0.0 mm
07:50 AM 32.0°F0.0°C 29.4°F-1.4°C 90% 2.3 mph ENE3.7 kmh ENE 2.3 mph3.7 kmh 29.63 in1003.4 mb - 0.00 in0.0 mm 0.00 in0.0 mm
07:55 AM 32.0°F0.0°C 29.4°F-1.4°C 90% 1.2 mph ENE1.9 kmh ENE 1.2 mph1.9 kmh 29.63 in1003.4 mb - 0.00 in0.0 mm 0.00 in0.0 mm
08:00 AM 32.0°F0.0°C 29.4°F-1.4°C 90% 1.2 mph ENE1.9 kmh ENE 2.3 mph3.7 kmh 29.63 in1003.4 mb - 0.00 in0.0 mm 0.00 in0.0 mm
08:10 AM 32.0°F0.0°C 29.4°F-1.4°C 90% 2.3 mph ENE3.7 kmh ENE 1.2 mph1.9 kmh 29.63 in1003.4 mb - 0.11 in2.8 mm 0.11 in2.8 mm
08:15 AM 32.0°F0.0°C 29.4°F-1.4°C 90% Calm Calm -- 29.63 in1003.4 mb - 0.11 in2.8 mm 0.11 in2.8 mm
08:20 AM 32.0°F0.0°C 29.4°F-1.4°C 90% 2.3 mph ENE3.7 kmh ENE 2.3 mph3.7 kmh 29.63 in1003.4 mb - 0.11 in2.8 mm 0.11 in2.8 mm
08:25 AM 32.1°F0.1°C 29.5°F-1.4°C 90% 1.2 mph ENE1.9 kmh ENE 1.2 mph1.9 kmh 29.63 in1003.4 mb - 0.11 in2.8 mm 0.11 in2.8 mm
08:30 AM 32.2°F0.1°C 29.6°F-1.3°C 90% 1.2 mph ENE1.9 kmh ENE 2.3 mph3.7 kmh 29.63 in1003.4 mb - 0.11 in2.8 mm 0.11 in2.8 mm
08:35 AM 32.2°F0.1°C 29.6°F-1.3°C 90% 2.3 mph E3.7 kmh E 3.5 mph5.6 kmh 29.63 in1003.4 mb - 0.11 in2.8 mm 0.11 in2.8 mm
08:40 AM 32.2°F0.1°C 29.8°F-1.2°C 91% 2.3 mph ESE3.7 kmh ESE 2.3 mph3.7 kmh 29.63 in1003.4 mb - 0.11 in2.8 mm 0.11 in2.8 mm
08:45 AM 32.2°F0.1°C 29.8°F-1.2°C 91% 2.3 mph E3.7 kmh E 2.3 mph3.7 kmh 29.64 in1003.7 mb - 0.11 in2.8 mm 0.11 in2.8 mm
08:50 AM 32.2°F0.1°C 29.8°F-1.2°C 91% 2.3 mph ESE3.7 kmh ESE 2.3 mph3.7 kmh 29.64 in1003.7 mb - 0.11 in2.8 mm 0.11 in2.8 mm
08:55 AM 32.2°F0.1°C 29.8°F-1.2°C 91% 2.3 mph ESE3.7 kmh ESE 3.5 mph5.6 kmh 29.64 in1003.7 mb - 0.11 in2.8 mm 0.11 in2.8 mm
09:00 AM 32.2°F0.1°C 29.8°F-1.2°C 91% 3.5 mph ESE5.6 kmh ESE 3.5 mph5.6 kmh 29.63 in1003.4 mb - 0.11 in2.8 mm 0.11 in2.8 mm
09:10 AM 32.4°F0.2°C 30.0°F-1.1°C 91% 3.5 mph ESE5.6 kmh ESE 2.3 mph3.7 kmh 29.63 in1003.4 mb - 0.00 in0.0 mm 0.11 in2.8 mm
09:15 AM 32.4°F0.2°C 30.0°F-1.1°C 91% 2.3 mph E3.7 kmh E 3.5 mph5.6 kmh 29.63 in1003.4 mb - 0.00 in0.0 mm 0.11 in2.8 mm
09:20 AM 32.4°F0.2°C 30.0°F-1.1°C 91% 2.3 mph ENE3.7 kmh ENE 2.3 mph3.7 kmh 29.63 in1003.4 mb - 0.00 in0.0 mm 0.11 in2.8 mm
09:25 AM 32.4°F0.2°C 29.8°F-1.2°C 90% 2.3 mph ENE3.7 kmh ENE 2.3 mph3.7 kmh 29.63 in1003.4 mb - 0.00 in0.0 mm 0.11 in2.8 mm
09:30 AM 32.5°F0.3°C 29.9°F-1.2°C 90% 2.3 mph ENE3.7 kmh ENE 3.5 mph5.6 kmh 29.63 in1003.4 mb - 0.00 in0.0 mm 0.11 in2.8 mm
09:35 AM 32.5°F0.3°C 29.9°F-1.2°C 90% 3.5 mph E5.6 kmh E 3.5 mph5.6 kmh 29.63 in1003.4 mb - 0.00 in0.0 mm 0.11 in2.8 mm
09:40 AM 32.7°F0.4°C 30.1°F-1.1°C 90% 3.5 mph ESE5.6 kmh ESE 3.5 mph5.6 kmh 29.63 in1003.4 mb - 0.00 in0.0 mm 0.11 in2.8 mm
09:45 AM 32.7°F0.4°C 30.1°F-1.1°C 90% 3.5 mph ESE5.6 kmh ESE 3.5 mph5.6 kmh 29.64 in1003.7 mb - 0.00 in0.0 mm 0.11 in2.8 mm
09:50 AM 32.7°F0.4°C 30.1°F-1.1°C 90% 2.3 mph ESE3.7 kmh ESE 3.5 mph5.6 kmh 29.64 in1003.7 mb - 0.00 in0.0 mm 0.11 in2.8 mm
09:55 AM 32.7°F0.4°C 30.1°F-1.1°C 90% 3.5 mph ESE5.6 kmh ESE 3.5 mph5.6 kmh 29.64 in1003.7 mb - 0.00 in0.0 mm 0.11 in2.8 mm
10:00 AM 32.7°F0.4°C 30.1°F-1.1°C 90% 2.3 mph ENE3.7 kmh ENE 3.5 mph5.6 kmh 29.64 in1003.7 mb - 0.00 in0.0 mm 0.11 in2.8 mm
10:10 AM 32.9°F0.5°C 30.3°F-0.9°C 90% 2.3 mph ESE3.7 kmh ESE 2.3 mph3.7 kmh 29.64 in1003.7 mb - 0.00 in0.0 mm 0.11 in2.8 mm
10:15 AM 32.9°F0.5°C 30.3°F-0.9°C 90% 2.3 mph ESE3.7 kmh ESE 3.5 mph5.6 kmh 29.65 in1004.1 mb - 0.00 in0.0 mm 0.11 in2.8 mm
10:20 AM 32.9°F0.5°C 30.3°F-0.9°C 90% 3.5 mph SE5.6 kmh SE 3.5 mph5.6 kmh 29.65 in1004.1 mb - 0.00 in0.0 mm 0.11 in2.8 mm
10:25 AM 32.9°F0.5°C 30.3°F-0.9°C 90% 3.5 mph SSE5.6 kmh SSE 3.5 mph5.6 kmh 29.65 in1004.1 mb - 0.00 in0.0 mm 0.11 in2.8 mm
10:30 AM 32.9°F0.5°C 30.3°F-0.9°C 90% 1.2 mph SSE1.9 kmh SSE 2.3 mph3.7 kmh 29.65 in1004.1 mb - 0.00 in0.0 mm 0.11 in2.8 mm
10:35 AM 32.9°F0.5°C 30.3°F-0.9°C 90% 2.3 mph ESE3.7 kmh ESE 1.2 mph1.9 kmh 29.65 in1004.1 mb - 0.00 in0.0 mm 0.11 in2.8 mm
10:40 AM 32.9°F0.5°C 30.3°F-0.9°C 90% Calm Calm 1.2 mph1.9 kmh 29.65 in1004.1 mb - 0.00 in0.0 mm 0.11 in2.8 mm
10:45 AM 32.9°F0.5°C 30.3°F-0.9°C 90% 1.2 mph SE1.9 kmh SE 2.3 mph3.7 kmh 29.64 in1003.7 mb - 0.00 in0.0 mm 0.11 in2.8 mm
10:50 AM 32.9°F0.5°C 30.3°F-0.9°C 90% 1.2 mph SE1.9 kmh SE 2.3 mph3.7 kmh 29.64 in1003.7 mb - 0.00 in0.0 mm 0.11 in2.8 mm
10:55 AM 32.9°F0.5°C 30.3°F-0.9°C 90% 1.2 mph SSE1.9 kmh SSE 2.3 mph3.7 kmh 29.64 in1003.7 mb - 0.00 in0.0 mm 0.11 in2.8 mm
11:00 AM 32.9°F0.5°C 30.3°F-0.9°C 90% 1.2 mph SSE1.9 kmh SSE 2.3 mph3.7 kmh 29.65 in1004.1 mb - 0.00 in0.0 mm 0.11 in2.8 mm
11:10 AM 32.9°F0.5°C 30.3°F-0.9°C 90% Calm Calm 1.2 mph1.9 kmh 29.65 in1004.1 mb - 0.00 in0.0 mm 0.11 in2.8 mm
11:15 AM 32.9°F0.5°C 30.3°F-0.9°C 90% 1.2 mph S1.9 kmh S 2.3 mph3.7 kmh 29.64 in1003.7 mb - 0.00 in0.0 mm 0.11 in2.8 mm
11:20 AM 32.9°F0.5°C 30.3°F-0.9°C 90% 2.3 mph NW3.7 kmh NW 2.3 mph3.7 kmh 29.64 in1003.7 mb - 0.00 in0.0 mm 0.11 in2.8 mm
11:25 AM 32.9°F0.5°C 30.3°F-0.9°C 90% 1.2 mph WNW1.9 kmh WNW 2.3 mph3.7 kmh 29.64 in1003.7 mb - 0.00 in0.0 mm 0.11 in2.8 mm
11:30 AM 32.9°F0.5°C 30.3°F-0.9°C 90% 1.2 mph NW1.9 kmh NW 2.3 mph3.7 kmh 29.64 in1003.7 mb - 0.00 in0.0 mm 0.11 in2.8 mm
11:35 AM 32.9°F0.5°C 30.6°F-0.8°C 91% Calm Calm 1.2 mph1.9 kmh 29.64 in1003.7 mb - 0.00 in0.0 mm 0.11 in2.8 mm
11:40 AM 32.9°F0.5°C 30.6°F-0.8°C 91% 2.3 mph NNW3.7 kmh NNW 2.3 mph3.7 kmh 29.64 in1003.7 mb - 0.00 in0.0 mm 0.11 in2.8 mm
11:45 AM 32.9°F0.5°C 30.6°F-0.8°C 91% 2.3 mph WNW3.7 kmh WNW 2.3 mph3.7 kmh 29.64 in1003.7 mb - 0.00 in0.0 mm 0.11 in2.8 mm
11:50 AM 32.9°F0.5°C 30.6°F-0.8°C 91% 3.5 mph NNW5.6 kmh NNW 3.5 mph5.6 kmh 29.64 in1003.7 mb - 0.00 in0.0 mm 0.11 in2.8 mm
11:55 AM 32.9°F0.5°C 30.8°F-0.7°C 92% 3.5 mph NNW5.6 kmh NNW 3.5 mph5.6 kmh 29.64 in1003.7 mb - 0.00 in0.0 mm 0.11 in2.8 mm
12:00 PM 33.0°F0.6°C 30.9°F-0.6°C 92% 2.3 mph NNW3.7 kmh NNW 3.5 mph5.6 kmh 29.63 in1003.4 mb - 0.00 in0.0 mm 0.11 in2.8 mm
12:10 PM 33.4°F0.8°C 31.4°F-0.3°C 92% 2.3 mph NW3.7 kmh NW 2.3 mph3.7 kmh 29.63 in1003.4 mb - 0.00 in0.0 mm 0.11 in2.8 mm
12:15 PM 33.6°F0.9°C 31.5°F-0.3°C 92% 1.2 mph NNE1.9 kmh NNE 2.3 mph3.7 kmh 29.63 in1003.4 mb - 0.00 in0.0 mm 0.11 in2.8 mm
12:20 PM 33.6°F0.9°C 31.5°F-0.3°C 92% 2.3 mph NNW3.7 kmh NNW 2.3 mph3.7 kmh 29.63 in1003.4 mb - 0.00 in0.0 mm 0.11 in2.8 mm
12:25 PM 33.6°F0.9°C 31.3°F-0.4°C 91% 3.5 mph N5.6 kmh N 4.6 mph7.4 kmh 29.63 in1003.4 mb - 0.00 in0.0 mm 0.11 in2.8 mm
12:30 PM 33.4°F0.8°C 31.1°F-0.5°C 91% 4.6 mph N7.4 kmh N 4.6 mph7.4 kmh 29.63 in1003.4 mb - 0.00 in0.0 mm 0.11 in2.8 mm
12:35 PM 33.6°F0.9°C 31.3°F-0.4°C 91% 3.5 mph NW5.6 kmh NW 3.5 mph5.6 kmh 29.63 in1003.4 mb - 0.00 in0.0 mm 0.11 in2.8 mm
12:40 PM 33.6°F0.9°C 31.3°F-0.4°C 91% 2.3 mph NNW3.7 kmh NNW 3.5 mph5.6 kmh 29.63 in1003.4 mb - 0.00 in0.0 mm 0.11 in2.8 mm
12:45 PM 33.4°F0.8°C 31.1°F-0.5°C 91% 3.5 mph NNW5.6 kmh NNW 3.5 mph5.6 kmh 29.63 in1003.4 mb - 0.00 in0.0 mm 0.11 in2.8 mm
12:50 PM 33.8°F1.0°C 31.4°F-0.3°C 91% 2.3 mph NNW3.7 kmh NNW 2.3 mph3.7 kmh 29.63 in1003.4 mb - 0.00 in0.0 mm 0.11 in2.8 mm
12:55 PM 34.0°F1.1°C 31.6°F-0.2°C 91% 3.5 mph NW5.6 kmh NW 3.5 mph5.6 kmh 29.63 in1003.4 mb - 0.00 in0.0 mm 0.11 in2.8 mm
01:00 PM 33.8°F1.0°C 31.5°F-0.3°C 91% 2.3 mph WNW3.7 kmh WNW 3.5 mph5.6 kmh 29.63 in1003.4 mb - 0.00 in0.0 mm 0.11 in2.8 mm
01:10 PM 33.6°F0.9°C 31.3°F-0.4°C 91% 2.3 mph NNW3.7 kmh NNW 3.5 mph5.6 kmh 29.63 in1003.4 mb - 0.00 in0.0 mm 0.11 in2.8 mm
01:15 PM 33.8°F1.0°C 31.5°F-0.3°C 91% 3.5 mph WNW5.6 kmh WNW 3.5 mph5.6 kmh 29.64 in1003.7 mb - 0.00 in0.0 mm 0.11 in2.8 mm
01:20 PM 33.6°F0.9°C 31.0°F-0.6°C 90% 3.5 mph NW5.6 kmh NW 3.5 mph5.6 kmh 29.64 in1003.7 mb - 0.00 in0.0 mm 0.11 in2.8 mm
01:25 PM 33.6°F0.9°C 31.0°F-0.6°C 90% 2.3 mph NW3.7 kmh NW 4.6 mph7.4 kmh 29.64 in1003.7 mb - 0.00 in0.0 mm 0.11 in2.8 mm
01:30 PM 33.6°F0.9°C 31.0°F-0.6°C 90% 3.5 mph NNW5.6 kmh NNW 3.5 mph5.6 kmh 29.64 in1003.7 mb - 0.00 in0.0 mm 0.11 in2.8 mm
01:35 PM 33.6°F0.9°C 31.0°F-0.6°C 90% 3.5 mph NNW5.6 kmh NNW 3.5 mph5.6 kmh 29.64 in1003.7 mb - 0.00 in0.0 mm 0.11 in2.8 mm
01:40 PM 33.4°F0.8°C 30.8°F-0.7°C 90% 3.5 mph NNW5.6 kmh NNW 3.5 mph5.6 kmh 29.64 in1003.7 mb - 0.00 in0.0 mm 0.11 in2.8 mm
01:45 PM 33.4°F0.8°C 30.8°F-0.7°C 90% 4.6 mph NNW7.4 kmh NNW 4.6 mph7.4 kmh 29.63 in1003.4 mb - 0.00 in0.0 mm 0.11 in2.8 mm
01:50 PM 33.3°F0.7°C 31.0°F-0.6°C 91% 3.5 mph NNW5.6 kmh NNW 4.6 mph7.4 kmh 29.63 in1003.4 mb - 0.00 in0.0 mm 0.11 in2.8 mm
01:55 PM 33.4°F0.8°C 31.0°F-0.6°C 91% 3.5 mph NW5.6 kmh NW 4.6 mph7.4 kmh 29.63 in1003.4 mb - 0.00 in0.0 mm 0.11 in2.8 mm
02:00 PM 33.3°F0.7°C 30.9°F-0.6°C 91% 3.5 mph WNW5.6 kmh WNW 4.6 mph7.4 kmh 29.63 in1003.4 mb - 0.00 in0.0 mm 0.11 in2.8 mm
02:10 PM 33.4°F0.8°C 31.1°F-0.5°C 91% 4.6 mph NW7.4 kmh NW 4.6 mph7.4 kmh 29.63 in1003.4 mb - 0.00 in0.0 mm 0.11 in2.8 mm
02:15 PM 33.4°F0.8°C 31.1°F-0.5°C 91% 3.5 mph NW5.6 kmh NW 5.8 mph9.3 kmh 29.64 in1003.7 mb - 0.00 in0.0 mm 0.11 in2.8 mm
02:20 PM 33.4°F0.8°C 31.1°F-0.5°C 91% 4.6 mph NW7.4 kmh NW 5.8 mph9.3 kmh 29.64 in1003.7 mb - 0.00 in0.0 mm 0.11 in2.8 mm
02:25 PM 33.3°F0.7°C 31.0°F-0.6°C 91% 4.6 mph WNW7.4 kmh WNW 5.8 mph9.3 kmh 29.64 in1003.7 mb - 0.00 in0.0 mm 0.11 in2.8 mm
02:30 PM 33.3°F0.7°C 30.9°F-0.6°C 91% 3.5 mph WNW5.6 kmh WNW 4.6 mph7.4 kmh 29.64 in1003.7 mb - 0.00 in0.0 mm 0.11 in2.8 mm
02:35 PM 33.3°F0.7°C 30.9°F-0.6°C 91% 3.5 mph WNW5.6 kmh WNW 3.5 mph5.6 kmh 29.64 in1003.7 mb - 0.00 in0.0 mm 0.11 in2.8 mm
02:40 PM 33.3°F0.7°C 30.9°F-0.6°C 91% 3.5 mph NW5.6 kmh NW 3.5 mph5.6 kmh 29.64 in1003.7 mb - 0.00 in0.0 mm 0.11 in2.8 mm
02:45 PM 33.3°F0.7°C 30.9°F-0.6°C 91% 2.3 mph N3.7 kmh N 3.5 mph5.6 kmh 29.64 in1003.7 mb - 0.00 in0.0 mm 0.11 in2.8 mm
02:50 PM 33.1°F0.6°C 31.0°F-0.6°C 92% 3.5 mph NNW5.6 kmh NNW 5.8 mph9.3 kmh 29.64 in1003.7 mb - 0.00 in0.0 mm 0.11 in2.8 mm
02:55 PM 33.0°F0.6°C 30.9°F-0.6°C 92% 5.8 mph NNW9.3 kmh NNW 6.9 mph11.1 kmh 29.64 in1003.7 mb - 0.00 in0.0 mm 0.11 in2.8 mm
03:00 PM 32.9°F0.5°C 30.8°F-0.7°C 92% 4.6 mph NNW7.4 kmh NNW 5.8 mph9.3 kmh 29.64 in1003.7 mb - 0.00 in0.0 mm 0.11 in2.8 mm
03:10 PM 32.9°F0.5°C 31.4°F-0.3°C 94% 4.6 mph NNW7.4 kmh NNW 5.8 mph9.3 kmh 29.64 in1003.7 mb - 0.00 in0.0 mm 0.11 in2.8 mm
03:15 PM 32.9°F0.5°C 31.4°F-0.3°C 94% 3.5 mph NNW5.6 kmh NNW 3.5 mph5.6 kmh 29.64 in1003.7 mb - 0.00 in0.0 mm 0.11 in2.8 mm
03:20 PM 32.7°F0.4°C 31.2°F-0.4°C 94% 4.6 mph NNW7.4 kmh NNW 4.6 mph7.4 kmh 29.64 in1003.7 mb - 0.00 in0.0 mm 0.11 in2.8 mm
03:25 PM 32.7°F0.4°C 31.4°F-0.3°C 95% 2.3 mph NNW3.7 kmh NNW 3.5 mph5.6 kmh 29.64 in1003.7 mb - 0.00 in0.0 mm 0.11 in2.8 mm
03:30 PM 32.9°F0.5°C 31.6°F-0.2°C 95% 3.5 mph NW5.6 kmh NW 3.5 mph5.6 kmh 29.64 in1003.7 mb - 0.00 in0.0 mm 0.11 in2.8 mm
03:35 PM 32.7°F0.4°C 31.4°F-0.3°C 95% 3.5 mph WNW5.6 kmh WNW 3.5 mph5.6 kmh 29.64 in1003.7 mb - 0.00 in0.0 mm 0.11 in2.8 mm
03:40 PM 32.9°F0.5°C 31.6°F-0.2°C 95% 2.3 mph NW3.7 kmh NW 3.5 mph5.6 kmh 29.64 in1003.7 mb - 0.00 in0.0 mm 0.11 in2.8 mm
03:45 PM 32.9°F0.5°C 31.4°F-0.3°C 94% 3.5 mph NNW5.6 kmh NNW 4.6 mph7.4 kmh 29.65 in1004.1 mb - 0.00 in0.0 mm 0.11 in2.8 mm
03:50 PM 32.9°F0.5°C 31.4°F-0.3°C 94% 3.5 mph NW5.6 kmh NW 8.1 mph13.0 kmh 29.65 in1004.1 mb - 0.00 in0.0 mm 0.11 in2.8 mm
03:55 PM 32.7°F0.4°C 31.2°F-0.4°C 94% 4.6 mph NW7.4 kmh NW 5.8 mph9.3 kmh 29.65 in1004.1 mb - 0.00 in0.0 mm 0.11 in2.8 mm
04:00 PM 32.7°F0.4°C 31.2°F-0.4°C 94% 2.3 mph NW3.7 kmh NW 3.5 mph5.6 kmh 29.65 in1004.1 mb - 0.00 in0.0 mm 0.11 in2.8 mm
04:10 PM 32.5°F0.3°C 31.0°F-0.6°C 94% 3.5 mph NW5.6 kmh NW 4.6 mph7.4 kmh 29.65 in1004.1 mb - 0.00 in0.0 mm 0.11 in2.8 mm
04:15 PM 32.5°F0.3°C 31.0°F-0.6°C 94% 4.6 mph NW7.4 kmh NW 3.5 mph5.6 kmh 29.66 in1004.4 mb - 0.00 in0.0 mm 0.11 in2.8 mm
04:20 PM 32.5°F0.3°C 31.0°F-0.6°C 94% 3.5 mph NNW5.6 kmh NNW 3.5 mph5.6 kmh 29.66 in1004.4 mb - 0.00 in0.0 mm 0.11 in2.8 mm
04:25 PM 32.4°F0.2°C 30.8°F-0.7°C 94% 4.6 mph NW7.4 kmh NW 5.8 mph9.3 kmh 29.66 in1004.4 mb - 0.00 in0.0 mm 0.11 in2.8 mm
04:30 PM 32.4°F0.2°C 30.8°F-0.7°C 94% 4.6 mph NNW7.4 kmh NNW 5.8 mph9.3 kmh 29.65 in1004.1 mb - 0.00 in0.0 mm 0.11 in2.8 mm
04:35 PM 32.4°F0.2°C 30.8°F-0.7°C 94% 3.5 mph NW5.6 kmh NW 5.8 mph9.3 kmh 29.65 in1004.1 mb - 0.00 in0.0 mm 0.11 in2.8 mm
04:40 PM 32.2°F0.1°C 30.6°F-0.8°C 94% 3.5 mph NW5.6 kmh NW 3.5 mph5.6 kmh 29.65 in1004.1 mb - 0.00 in0.0 mm 0.11 in2.8 mm
04:45 PM 32.2°F0.1°C 30.6°F-0.8°C 94% 4.6 mph NW7.4 kmh NW 5.8 mph9.3 kmh 29.66 in1004.4 mb - 0.00 in0.0 mm 0.11 in2.8 mm
04:50 PM 32.2°F0.1°C 30.6°F-0.8°C 94% 3.5 mph WNW5.6 kmh WNW 3.5 mph5.6 kmh 29.66 in1004.4 mb - 0.00 in0.0 mm 0.11 in2.8 mm
04:55 PM 32.2°F0.1°C 30.6°F-0.8°C 94% 4.6 mph WNW7.4 kmh WNW 6.9 mph11.1 kmh 29.66 in1004.4 mb - 0.00 in0.0 mm 0.11 in2.8 mm
05:00 PM 32.2°F0.1°C 30.6°F-0.8°C 94% 3.5 mph NNW5.6 kmh NNW 5.8 mph9.3 kmh 29.66 in1004.4 mb - 0.00 in0.0 mm 0.11 in2.8 mm
05:10 PM 32.0°F0.0°C 30.5°F-0.8°C 94% 3.5 mph NW5.6 kmh NW 3.5 mph5.6 kmh 29.66 in1004.4 mb - 0.00 in0.0 mm 0.11 in2.8 mm
05:15 PM 32.0°F0.0°C 29.9°F-1.2°C 92% 4.6 mph WNW7.4 kmh WNW 5.8 mph9.3 kmh 29.67 in1004.7 mb - 0.00 in0.0 mm 0.11 in2.8 mm
05:20 PM 32.0°F0.0°C 29.9°F-1.2°C 92% 3.5 mph NW5.6 kmh NW 4.6 mph7.4 kmh 29.67 in1004.7 mb - 0.00 in0.0 mm 0.11 in2.8 mm
05:25 PM 32.0°F0.0°C 29.9°F-1.2°C 92% 4.6 mph NNW7.4 kmh NNW 4.6 mph7.4 kmh 29.67 in1004.7 mb - 0.00 in0.0 mm 0.11 in2.8 mm
05:30 PM 32.0°F0.0°C 29.9°F-1.2°C 92% 3.5 mph NW5.6 kmh NW 3.5 mph5.6 kmh 29.67 in1004.7 mb - 0.00 in0.0 mm 0.11 in2.8 mm
05:35 PM 32.0°F0.0°C 29.9°F-1.2°C 92% 2.3 mph NW3.7 kmh NW 3.5 mph5.6 kmh 29.67 in1004.7 mb - 0.00 in0.0 mm 0.11 in2.8 mm
05:40 PM 32.0°F0.0°C 29.9°F-1.2°C 92% 4.6 mph NW7.4 kmh NW 4.6 mph7.4 kmh 29.67 in1004.7 mb - 0.00 in0.0 mm 0.11 in2.8 mm
05:45 PM 32.0°F0.0°C 29.9°F-1.2°C 92% 4.6 mph NW7.4 kmh NW 5.8 mph9.3 kmh 29.67 in1004.7 mb - 0.00 in0.0 mm 0.11 in2.8 mm
05:50 PM 32.0°F0.0°C 29.9°F-1.2°C 92% 2.3 mph N3.7 kmh N 3.5 mph5.6 kmh 29.67 in1004.7 mb - 0.00 in0.0 mm 0.11 in2.8 mm
05:55 PM 32.0°F0.0°C 29.9°F-1.2°C 92% 3.5 mph WNW5.6 kmh WNW 3.5 mph5.6 kmh 29.67 in1004.7 mb - 0.00 in0.0 mm 0.11 in2.8 mm
06:00 PM 32.0°F0.0°C 29.9°F-1.2°C 92% 4.6 mph NW7.4 kmh NW 5.8 mph9.3 kmh 29.68 in1005.1 mb - 0.00 in0.0 mm 0.11 in2.8 mm
06:10 PM 32.0°F0.0°C 29.9°F-1.2°C 92% 3.5 mph NW5.6 kmh NW 4.6 mph7.4 kmh 29.68 in1005.1 mb - 0.00 in0.0 mm 0.11 in2.8 mm
06:15 PM 32.0°F0.0°C 29.9°F-1.2°C 92% 4.6 mph WNW7.4 kmh WNW 4.6 mph7.4 kmh 29.68 in1005.1 mb - 0.00 in0.0 mm 0.11 in2.8 mm
06:20 PM 32.0°F0.0°C 29.9°F-1.2°C 92% 2.3 mph NW3.7 kmh NW 2.3 mph3.7 kmh 29.68 in1005.1 mb - 0.00 in0.0 mm 0.11 in2.8 mm
06:25 PM 32.0°F0.0°C 29.9°F-1.2°C 92% 2.3 mph NW3.7 kmh NW 3.5 mph5.6 kmh 29.68 in1005.1 mb - 0.00 in0.0 mm 0.11 in2.8 mm
06:30 PM 32.0°F0.0°C 29.9°F-1.2°C 92% 2.3 mph NW3.7 kmh NW 3.5 mph5.6 kmh 29.69 in1005.4 mb - 0.00 in0.0 mm 0.11 in2.8 mm
06:35 PM 32.0°F0.0°C 29.9°F-1.2°C 92% 2.3 mph NW3.7 kmh NW 2.3 mph3.7 kmh 29.69 in1005.4 mb - 0.00 in0.0 mm 0.11 in2.8 mm
06:40 PM 32.0°F0.0°C 29.9°F-1.2°C 92% 3.5 mph WNW5.6 kmh WNW 4.6 mph7.4 kmh 29.69 in1005.4 mb - 0.00 in0.0 mm 0.11 in2.8 mm
06:45 PM 32.0°F0.0°C 29.9°F-1.2°C 92% 3.5 mph NW5.6 kmh NW 4.6 mph7.4 kmh 29.69 in1005.4 mb - 0.00 in0.0 mm 0.11 in2.8 mm
06:50 PM 32.0°F0.0°C 29.7°F-1.3°C 91% 3.5 mph NW5.6 kmh NW 4.6 mph7.4 kmh 29.69 in1005.4 mb - 0.00 in0.0 mm 0.11 in2.8 mm
06:55 PM 32.0°F0.0°C 29.7°F-1.3°C 91% 3.5 mph NNW5.6 kmh NNW 4.6 mph7.4 kmh 29.69 in1005.4 mb - 0.00 in0.0 mm 0.11 in2.8 mm
07:00 PM 32.0°F0.0°C 29.7°F-1.3°C 91% 3.5 mph WNW5.6 kmh WNW 4.6 mph7.4 kmh 29.69 in1005.4 mb - 0.00 in0.0 mm 0.11 in2.8 mm
07:10 PM 32.0°F0.0°C 29.7°F-1.3°C 91% 3.5 mph WNW5.6 kmh WNW 3.5 mph5.6 kmh 29.69 in1005.4 mb - 0.00 in0.0 mm 0.11 in2.8 mm
07:15 PM 32.0°F0.0°C 29.7°F-1.3°C 91% 3.5 mph NW5.6 kmh NW 3.5 mph5.6 kmh 29.70 in1005.8 mb - 0.00 in0.0 mm 0.11 in2.8 mm
07:20 PM 32.0°F0.0°C 29.7°F-1.3°C 91% 3.5 mph WNW5.6 kmh WNW 3.5 mph5.6 kmh 29.70 in1005.8 mb - 0.00 in0.0 mm 0.11 in2.8 mm
07:25 PM 32.0°F0.0°C 29.7°F-1.3°C 91% 3.5 mph NW5.6 kmh NW 3.5 mph5.6 kmh 29.70 in1005.8 mb - 0.00 in0.0 mm 0.11 in2.8 mm
07:30 PM 32.0°F0.0°C 29.7°F-1.3°C 91% 2.3 mph NW3.7 kmh NW 3.5 mph5.6 kmh 29.70 in1005.8 mb - 0.00 in0.0 mm 0.11 in2.8 mm
07:35 PM 32.0°F0.0°C 29.7°F-1.3°C 91% 3.5 mph NW5.6 kmh NW 3.5 mph5.6 kmh 29.70 in1005.8 mb - 0.00 in0.0 mm 0.11 in2.8 mm
07:40 PM 32.0°F0.0°C 29.7°F-1.3°C 91% 3.5 mph NW5.6 kmh NW 3.5 mph5.6 kmh 29.70 in1005.8 mb - 0.00 in0.0 mm 0.11 in2.8 mm
07:45 PM 32.0°F0.0°C 29.7°F-1.3°C 91% 4.6 mph NW7.4 kmh NW 4.6 mph7.4 kmh 29.71 in1006.1 mb - 0.00 in0.0 mm 0.11 in2.8 mm
07:50 PM 32.0°F0.0°C 29.7°F-1.3°C 91% 3.5 mph WNW5.6 kmh WNW 3.5 mph5.6 kmh 29.71 in1006.1 mb - 0.00 in0.0 mm 0.11 in2.8 mm
07:55 PM 32.0°F0.0°C 29.7°F-1.3°C 91% 3.5 mph NW5.6 kmh NW 3.5 mph5.6 kmh 29.71 in1006.1 mb - 0.00 in0.0 mm 0.11 in2.8 mm
08:00 PM 32.0°F0.0°C 29.7°F-1.3°C 91% 1.2 mph NW1.9 kmh NW 2.3 mph3.7 kmh 29.70 in1005.8 mb - 0.00 in0.0 mm 0.11 in2.8 mm
08:10 PM 32.0°F0.0°C 29.7°F-1.3°C 91% 2.3 mph NW3.7 kmh NW 3.5 mph5.6 kmh 29.70 in1005.8 mb - 0.00 in0.0 mm 0.11 in2.8 mm
08:15 PM 32.0°F0.0°C 29.7°F-1.3°C 91% 2.3 mph WNW3.7 kmh WNW 3.5 mph5.6 kmh 29.71 in1006.1 mb - 0.00 in0.0 mm 0.11 in2.8 mm
08:20 PM 32.0°F0.0°C 29.7°F-1.3°C 91% 3.5 mph WNW5.6 kmh WNW 4.6 mph7.4 kmh 29.71 in1006.1 mb - 0.00 in0.0 mm 0.11 in2.8 mm
08:25 PM 32.0°F0.0°C 29.7°F-1.3°C 91% 3.5 mph WNW5.6 kmh WNW 4.6 mph7.4 kmh 29.71 in1006.1 mb - 0.00 in0.0 mm 0.11 in2.8 mm
08:30 PM 32.0°F0.0°C 29.7°F-1.3°C 91% 3.5 mph NNW5.6 kmh NNW 4.6 mph7.4 kmh 29.72 in1006.4 mb - 0.00 in0.0 mm 0.11 in2.8 mm
08:35 PM 32.0°F0.0°C 29.7°F-1.3°C 91% 4.6 mph NW7.4 kmh NW 5.8 mph9.3 kmh 29.72 in1006.4 mb - 0.00 in0.0 mm 0.11 in2.8 mm
08:40 PM 32.0°F0.0°C 29.7°F-1.3°C 91% 4.6 mph NW7.4 kmh NW 5.8 mph9.3 kmh 29.72 in1006.4 mb - 0.00 in0.0 mm 0.11 in2.8 mm
08:45 PM 32.0°F0.0°C 29.4°F-1.4°C 90% 5.8 mph NW9.3 kmh NW 8.1 mph13.0 kmh 29.73 in1006.8 mb - 0.00 in0.0 mm 0.11 in2.8 mm
08:50 PM 32.0°F0.0°C 29.4°F-1.4°C 90% 3.5 mph NNW5.6 kmh NNW 4.6 mph7.4 kmh 29.73 in1006.8 mb - 0.00 in0.0 mm 0.11 in2.8 mm
08:55 PM 32.0°F0.0°C 29.4°F-1.4°C 90% 4.6 mph NNW7.4 kmh NNW 5.8 mph9.3 kmh 29.73 in1006.8 mb - 0.00 in0.0 mm 0.11 in2.8 mm
09:00 PM 32.0°F0.0°C 29.4°F-1.4°C 90% 3.5 mph NW5.6 kmh NW 3.5 mph5.6 kmh 29.73 in1006.8 mb - 0.00 in0.0 mm 0.11 in2.8 mm
09:10 PM 31.8°F-0.1°C 29.5°F-1.4°C 91% 3.5 mph NNW5.6 kmh NNW 4.6 mph7.4 kmh 29.73 in1006.8 mb - 0.00 in0.0 mm 0.11 in2.8 mm
09:15 PM 31.8°F-0.1°C 29.5°F-1.4°C 91% 4.6 mph NNW7.4 kmh NNW 4.6 mph7.4 kmh 29.73 in1006.8 mb - 0.00 in0.0 mm 0.11 in2.8 mm
09:20 PM 31.8°F-0.1°C 29.5°F-1.4°C 91% 5.8 mph NW9.3 kmh NW 5.8 mph9.3 kmh 29.73 in1006.8 mb - 0.00 in0.0 mm 0.11 in2.8 mm
09:25 PM 31.8°F-0.1°C 29.5°F-1.4°C 91% 3.5 mph WNW5.6 kmh WNW 4.6 mph7.4 kmh 29.73 in1006.8 mb - 0.00 in0.0 mm 0.11 in2.8 mm
09:30 PM 31.8°F-0.1°C 29.5°F-1.4°C 91% 3.5 mph NNW5.6 kmh NNW 8.1 mph13.0 kmh 29.73 in1006.8 mb - 0.00 in0.0 mm 0.11 in2.8 mm
09:35 PM 31.8°F-0.1°C 29.2°F-1.6°C 90% 4.6 mph NNW7.4 kmh NNW 5.8 mph9.3 kmh 29.73 in1006.8 mb - 0.00 in0.0 mm 0.11 in2.8 mm
09:40 PM 31.8°F-0.1°C 29.2°F-1.6°C 90% 3.5 mph NW5.6 kmh NW 3.5 mph5.6 kmh 29.73 in1006.8 mb - 0.00 in0.0 mm 0.11 in2.8 mm
09:45 PM 31.8°F-0.1°C 29.2°F-1.6°C 90% 4.6 mph NW7.4 kmh NW 3.5 mph5.6 kmh 29.74 in1007.1 mb - 0.00 in0.0 mm 0.11 in2.8 mm
09:50 PM 31.8°F-0.1°C 29.2°F-1.6°C 90% 4.6 mph NNW7.4 kmh NNW 5.8 mph9.3 kmh 29.74 in1007.1 mb - 0.00 in0.0 mm 0.11 in2.8 mm
09:55 PM 31.8°F-0.1°C 28.9°F-1.7°C 89% 3.5 mph NNW5.6 kmh NNW 3.5 mph5.6 kmh 29.74 in1007.1 mb - 0.00 in0.0 mm 0.11 in2.8 mm
10:00 PM 31.6°F-0.2°C 28.8°F-1.8°C 89% 5.8 mph NW9.3 kmh NW 8.1 mph13.0 kmh 29.74 in1007.1 mb - 0.00 in0.0 mm 0.11 in2.8 mm
10:10 PM 31.6°F-0.2°C 28.8°F-1.8°C 89% 3.5 mph N5.6 kmh N 8.1 mph13.0 kmh 29.74 in1007.1 mb - 0.00 in0.0 mm 0.11 in2.8 mm
10:15 PM 31.6°F-0.2°C 28.8°F-1.8°C 89% 3.5 mph NNW5.6 kmh NNW 3.5 mph5.6 kmh 29.74 in1007.1 mb - 0.00 in0.0 mm 0.11 in2.8 mm
10:20 PM 31.6°F-0.2°C 28.5°F-1.9°C 88% 4.6 mph NNW7.4 kmh NNW 5.8 mph9.3 kmh 29.74 in1007.1 mb - 0.00 in0.0 mm 0.11 in2.8 mm
10:25 PM 31.5°F-0.3°C 28.3°F-2.1°C 88% 4.6 mph NNW7.4 kmh NNW 5.8 mph9.3 kmh 29.74 in1007.1 mb - 0.00 in0.0 mm 0.11 in2.8 mm
10:30 PM 31.5°F-0.3°C 28.0°F-2.2°C 87% 6.9 mph NNW11.1 kmh NNW 9.2 mph14.8 kmh 29.74 in1007.1 mb - 0.00 in0.0 mm 0.11 in2.8 mm
10:35 PM 31.5°F-0.3°C 26.9°F-2.8°C 83% 5.8 mph NNW9.3 kmh NNW 9.2 mph14.8 kmh 29.74 in1007.1 mb - 0.00 in0.0 mm 0.11 in2.8 mm
10:40 PM 31.3°F-0.4°C 26.8°F-2.9°C 83% 5.8 mph NNW9.3 kmh NNW 5.8 mph9.3 kmh 29.74 in1007.1 mb - 0.00 in0.0 mm 0.11 in2.8 mm
10:45 PM 31.3°F-0.4°C 26.7°F-2.9°C 83% 4.6 mph NNW7.4 kmh NNW 5.8 mph9.3 kmh 29.75 in1007.5 mb - 0.00 in0.0 mm 0.11 in2.8 mm
10:50 PM 31.3°F-0.4°C 26.7°F-2.9°C 83% 3.5 mph N5.6 kmh N 4.6 mph7.4 kmh 29.75 in1007.5 mb - 0.00 in0.0 mm 0.11 in2.8 mm
10:55 PM 31.3°F-0.4°C 26.7°F-2.9°C 83% 5.8 mph N9.3 kmh N 5.8 mph9.3 kmh 29.75 in1007.5 mb - 0.00 in0.0 mm 0.11 in2.8 mm
11:00 PM 31.3°F-0.4°C 26.7°F-2.9°C 83% 4.6 mph NNW7.4 kmh NNW 5.8 mph9.3 kmh 29.75 in1007.5 mb - 0.00 in0.0 mm 0.11 in2.8 mm
11:10 PM 31.1°F-0.5°C 26.5°F-3.1°C 83% 4.6 mph NNW7.4 kmh NNW 4.6 mph7.4 kmh 29.75 in1007.5 mb - 0.00 in0.0 mm 0.11 in2.8 mm
11:15 PM 31.1°F-0.5°C 26.5°F-3.1°C 83% 3.5 mph NNW5.6 kmh NNW 4.6 mph7.4 kmh 29.75 in1007.5 mb - 0.00 in0.0 mm 0.11 in2.8 mm
11:20 PM 31.1°F-0.5°C 26.5°F-3.1°C 83% 3.5 mph WNW5.6 kmh WNW 3.5 mph5.6 kmh 29.75 in1007.5 mb - 0.00 in0.0 mm 0.11 in2.8 mm
11:25 PM 31.1°F-0.5°C 26.5°F-3.1°C 83% 4.6 mph NNW7.4 kmh NNW 5.8 mph9.3 kmh 29.75 in1007.5 mb - 0.00 in0.0 mm 0.11 in2.8 mm
11:30 PM 31.1°F-0.5°C 26.5°F-3.1°C 83% 3.5 mph NW5.6 kmh NW 4.6 mph7.4 kmh 29.76 in1007.8 mb - 0.00 in0.0 mm 0.11 in2.8 mm
11:35 PM 31.1°F-0.5°C 26.5°F-3.1°C 83% 3.5 mph NNW5.6 kmh NNW 3.5 mph5.6 kmh 29.76 in1007.8 mb - 0.00 in0.0 mm 0.11 in2.8 mm
11:40 PM 31.1°F-0.5°C 26.8°F-2.9°C 84% 3.5 mph NNW5.6 kmh NNW 3.5 mph5.6 kmh 29.76 in1007.8 mb - 0.00 in0.0 mm 0.11 in2.8 mm
11:45 PM 31.1°F-0.5°C 26.8°F-2.9°C 84% 5.8 mph NNW9.3 kmh NNW 5.8 mph9.3 kmh 29.76 in1007.8 mb - 0.00 in0.0 mm 0.11 in2.8 mm
11:50 PM 31.1°F-0.5°C 26.5°F-3.1°C 83% 3.5 mph N5.6 kmh N 3.5 mph5.6 kmh 29.76 in1007.8 mb - 0.00 in0.0 mm 0.11 in2.8 mm
11:55 PM 31.1°F-0.5°C 26.5°F-3.1°C 83% 3.5 mph NNW5.6 kmh NNW 3.5 mph5.6 kmh 29.76 in1007.8 mb - 0.00 in0.0 mm 0.11 in2.8 mm